Time;durP1;ratioP1;P1;durP2;ratioP2;P2;SDS_P1;SDS_P2;PMS_P1;PMS_P2;Temp;Humidity;BMP_temperature;BMP_pressure;BME280_temperature;BME280_humidity;BME280_pressure;Samples;Min_cycle;Max_cycle;Signal;HPM_P1;HPM_P2
2022/07/19 00:00:40;;;;;;;13.40;5.60;;;;;;;15.31;50.83;99630.30;106044;1276;96563;-65
2022/07/19 00:03:11;;;;;;;15.40;5.80;;;;;;;15.30;50.96;99630.94;105973;1275;95692;-65
2022/07/19 00:05:45;;;;;;;17.30;6.60;;;;;;;15.32;51.10;99631.52;105989;1276;111286;-65
2022/07/19 00:08:13;;;;;;;15.50;6.30;;;;;;;15.30;50.82;99630.27;105986;1276;97957;-64
2022/07/19 00:10:43;;;;;;;15.60;5.90;;;;;;;15.24;50.91;99627.17;105994;1275;108978;-65
2022/07/19 00:13:10;;;;;;;17.20;6.10;;;;;;;15.21;51.25;99628.49;105990;1274;97848;-65
2022/07/19 00:15:41;;;;;;;18.30;6.40;;;;;;;15.21;51.42;99628.84;106136;1274;97863;-65
2022/07/19 00:18:17;;;;;;;15.30;6.00;;;;;;;15.21;51.61;99629.35;105993;1275;112014;-65
2022/07/19 00:20:47;;;;;;;14.20;5.50;;;;;;;15.24;51.73;99629.54;106122;1276;98588;-66
2022/07/19 00:23:15;;;;;;;17.00;6.30;;;;;;;15.27;51.81;99627.63;106083;1274;107559;-65
2022/07/19 00:25:43;;;;;;;17.40;5.70;;;;;;;15.28;51.86;99627.04;106007;1276;95262;-66
2022/07/19 00:28:11;;;;;;;15.40;6.00;;;;;;;15.30;51.97;99629.13;106067;1275;97907;-65
2022/07/19 00:30:44;;;;;;;14.50;5.60;;;;;;;15.32;52.04;99624.86;106028;1277;113802;-66
2022/07/19 00:33:15;;;;;;;16.20;6.40;;;;;;;15.32;52.11;99625.91;105983;1276;97954;-66
2022/07/19 00:35:46;;;;;;;15.50;5.30;;;;;;;15.33;52.16;99620.53;106069;1277;107732;-65
2022/07/19 00:38:17;;;;;;;17.80;6.30;;;;;;;15.34;52.26;99620.11;106105;1276;97901;-65
2022/07/19 00:40:45;;;;;;;17.70;5.60;;;;;;;15.36;52.38;99622.98;106128;1277;97972;-67
2022/07/19 00:43:13;;;;;;;16.70;5.70;;;;;;;15.37;52.41;99619.66;106142;1276;111615;-66
2022/07/19 00:45:40;;;;;;;13.70;5.60;;;;;;;15.38;52.30;99621.70;106001;1276;97771;-66
2022/07/19 00:48:10;;;;;;;15.00;5.20;;;;;;;15.37;52.49;99624.67;105979;1276;107767;-66
2022/07/19 00:50:38;;;;;;;13.50;4.60;;;;;;;15.38;52.63;99627.45;105989;1277;97845;-66
2022/07/19 00:53:13;;;;;;;13.10;4.90;;;;;;;15.40;52.68;99620.64;106045;1276;98153;-67
2022/07/19 00:55:46;;;;;;;15.30;6.00;;;;;;;15.42;52.76;99619.56;105981;1276;111467;-65
2022/07/19 00:58:19;;;;;;;15.30;5.40;;;;;;;15.43;52.41;99618.30;106031;1276;97884;-69
2022/07/19 01:00:51;;;;;;;16.20;5.70;;;;;;;15.36;52.43;99619.20;105989;1276;108307;-67
2022/07/19 01:03:24;;;;;;;13.00;5.50;;;;;;;15.29;52.33;99619.77;106017;1277;97944;-66
2022/07/19 01:05:55;;;;;;;;;;;;;;;15.22;52.41;99612.85;106118;1276;97863;-65
2022/07/19 01:08:23;;;;;;;15.10;5.20;;;;;;;15.15;52.82;99613.23;106057;1277;111862;-67
2022/07/19 01:10:54;;;;;;;14.40;5.60;;;;;;;15.15;52.90;99613.98;106013;1276;97963;-66
2022/07/19 01:13:25;;;;;;;15.40;5.40;;;;;;;15.14;52.80;99610.33;106153;1276;107989;-65
2022/07/19 01:15:53;;;;;;;15.40;4.70;;;;;;;15.11;53.07;99608.92;106047;1274;97895;-65
2022/07/19 01:18:25;;;;;;;19.10;5.30;;;;;;;15.11;53.11;99602.86;106117;1274;97951;-66
2022/07/19 01:20:57;;;;;;;14.90;5.20;;;;;;;15.10;53.16;99603.11;106070;1274;112044;-66
2022/07/19 01:23:25;;;;;;;16.20;5.30;;;;;;;15.11;53.38;99601.27;106110;1274;97947;-65
2022/07/19 01:25:53;;;;;;;13.20;5.00;;;;;;;15.15;53.45;99605.25;106088;1274;108402;-66
2022/07/19 01:28:24;;;;;;;12.10;4.70;;;;;;;15.19;53.61;99600.25;106085;1274;98675;-65
2022/07/19 01:30:52;;;;;;;12.10;4.70;;;;;;;15.24;53.62;99593.64;106112;1274;97876;-67
2022/07/19 01:33:21;;;;;;;14.00;4.80;;;;;;;15.27;53.67;99594.26;106075;1276;112136;-65
2022/07/19 01:35:49;;;;;;;12.20;4.70;;;;;;;15.29;53.69;99594.94;106148;1274;97915;-65
2022/07/19 01:38:17;;;;;;;12.00;4.90;;;;;;;15.32;53.83;99596.44;106019;1274;108367;-66
2022/07/19 01:40:51;;;;;;;13.10;4.70;;;;;;;15.36;53.84;99601.88;106037;1274;96374;-65
2022/07/19 01:43:19;;;;;;;12.20;5.00;;;;;;;15.39;53.97;99601.98;106088;1275;95255;-66
2022/07/19 01:45:49;;;;;;;12.00;5.20;;;;;;;15.41;53.97;99597.52;106045;1274;112784;-65
2022/07/19 01:48:24;;;;;;;15.20;5.40;;;;;;;15.40;53.72;99597.98;105957;1274;97943;-66
2022/07/19 01:50:52;;;;;;;13.90;4.70;;;;;;;15.34;53.55;99593.14;106059;1274;107564;-66
2022/07/19 01:53:21;;;;;;;15.90;5.40;;;;;;;15.30;53.80;99590.97;106046;1275;97916;-67
2022/07/19 01:55:50;;;;;;;11.60;4.70;;;;;;;15.27;53.80;99591.71;106108;1277;97908;-66
2022/07/19 01:58:24;;;;;;;15.20;5.70;;;;;;;15.27;54.15;99592.82;106010;1274;113205;-67
2022/07/19 02:00:52;;;;;;;15.00;5.20;;;;;;;15.30;54.30;99596.25;105999;1274;98072;-66
2022/07/19 02:03:24;;;;;;;14.00;4.80;;;;;;;15.34;54.30;99595.24;106113;1274;108252;-68
2022/07/19 02:05:58;;;;;;;12.80;4.70;;;;;;;15.37;54.34;99598.80;106056;1274;98471;-65
2022/07/19 02:08:29;;;;;;;13.90;4.90;;;;;;;15.40;54.46;99596.55;106047;1274;97944;-65
2022/07/19 02:11:34;;;;;;;15.60;5.20;;;;;;;15.44;54.52;99596.40;106081;1274;111431;-66
2022/07/19 02:13:50;;;;;;;13.80;5.30;;;;;;;15.46;54.41;99595.81;106088;1274;98490;-66
2022/07/19 02:16:18;;;;;;;15.90;4.80;;;;;;;15.49;54.29;99599.19;105965;1274;108242;-67
2022/07/19 02:18:46;;;;;;;13.10;4.40;;;;;;;15.49;54.20;99597.77;105942;1274;98666;-66
2022/07/19 02:21:15;;;;;;;14.60;5.20;;;;;;;15.47;54.15;99597.00;105961;1277;97846;-65
2022/07/19 02:23:50;;;;;;;14.90;5.00;;;;;;;15.44;54.43;99601.15;105951;1275;112064;-66
2022/07/19 02:26:17;;;;;;;11.50;4.70;;;;;;;15.45;54.47;99594.02;105948;1275;98598;-66
2022/07/19 02:28:50;;;;;;;15.70;5.10;;;;;;;15.43;54.52;99592.31;106005;1274;108671;-67
2022/07/19 02:31:17;;;;;;;12.30;4.90;;;;;;;15.44;54.61;99595.30;106022;1274;97844;-67
2022/07/19 02:33:46;;;;;;;13.00;4.60;;;;;;;15.44;54.60;99593.39;105985;1274;96672;-66
2022/07/19 02:36:21;;;;;;;13.80;4.90;;;;;;;15.42;54.72;99593.55;105997;1277;111952;-66
2022/07/19 02:38:48;;;;;;;12.10;4.50;;;;;;;15.41;54.69;99597.20;106035;1274;95184;-67
2022/07/19 02:41:21;;;;;;;13.50;5.20;;;;;;;15.40;54.73;99599.05;105921;1276;108291;-65
2022/07/19 02:43:49;;;;;;;14.20;4.90;;;;;;;15.38;54.72;99594.61;105947;1274;96359;-69
2022/07/19 02:46:17;;;;;;;14.60;4.70;;;;;;;15.36;54.91;99593.27;105942;1275;96339;-65
2022/07/19 02:48:48;;;;;;;13.60;4.40;;;;;;;15.37;54.96;99592.91;105934;1277;111880;-66
2022/07/19 02:51:20;;;;;;;14.70;5.50;;;;;;;15.38;55.02;99594.20;105937;1277;97980;-70
2022/07/19 02:53:53;;;;;;;16.20;5.60;;;;;;;15.39;54.94;99597.52;106084;1274;108386;-67
2022/07/19 02:56:21;;;;;;;13.10;4.80;;;;;;;15.38;55.01;99593.11;106006;1277;97870;-66
2022/07/19 02:58:49;;;;;;;13.50;4.60;;;;;;;15.37;55.16;99598.19;106064;1274;97908;-66
2022/07/19 03:01:21;;;;;;;10.90;4.70;;;;;;;15.37;55.29;99599.79;106035;1274;112468;-66
2022/07/19 03:03:51;;;;;;;15.50;5.10;;;;;;;15.38;55.19;99601.16;106083;1275;97874;-65
2022/07/19 03:06:22;;;;;;;13.60;5.30;;;;;;;15.36;55.42;99602.05;106056;1275;108196;-66
2022/07/19 03:08:50;;;;;;;12.20;5.40;;;;;;;15.36;55.42;99605.09;105943;1275;95391;-65
2022/07/19 03:11:22;;;;;;;11.40;5.00;;;;;;;15.36;55.47;99605.23;105926;1274;95271;-67
2022/07/19 03:13:50;;;;;;;11.70;4.70;;;;;;;15.37;55.61;99610.93;106044;1274;111237;-67
2022/07/19 03:16:22;;;;;;;15.70;4.90;;;;;;;15.37;55.65;99607.02;105967;1274;97877;-66
2022/07/19 03:18:53;;;;;;;13.40;4.70;;;;;;;15.35;55.55;99603.56;106000;1274;108625;-65
2022/07/19 03:21:21;;;;;;;13.40;4.90;;;;;;;15.33;55.67;99606.05;105981;1274;97765;-66
2022/07/19 03:23:53;;;;;;;14.80;5.20;;;;;;;15.34;55.91;99605.77;106031;1274;98023;-66
2022/07/19 03:26:21;;;;;;;18.70;5.30;;;;;;;15.35;56.03;99608.74;105952;1276;111817;-66
2022/07/19 03:28:52;;;;;;;13.00;4.80;;;;;;;15.39;56.12;99605.09;105947;1275;97962;-65
2022/07/19 03:31:25;;;;;;;13.80;5.20;;;;;;;15.40;56.12;99608.13;105898;1277;107950;-67
2022/07/19 03:33:56;;;;;;;14.00;4.90;;;;;;;15.40;56.03;99608.85;106019;1274;97896;-67
2022/07/19 03:36:24;;;;;;;14.40;4.60;;;;;;;15.39;55.95;99610.58;106002;1274;97937;-65
2022/07/19 03:38:52;;;;;;;16.70;4.60;;;;;;;15.37;56.14;99611.11;106039;1274;110066;-67
2022/07/19 03:41:24;;;;;;;11.70;4.80;;;;;;;15.37;56.35;99616.08;106094;1274;97995;-66
2022/07/19 03:43:58;;;;;;;12.10;4.80;;;;;;;15.38;56.48;99611.69;106047;1274;108966;-66
2022/07/19 03:46:28;;;;;;;10.90;4.60;;;;;;;15.43;56.48;99616.59;105957;1274;96495;-67
2022/07/19 03:48:59;;;;;;;14.20;5.50;;;;;;;15.45;56.36;99615.02;103897;1274;2755691;-65
2022/07/19 03:51:27;;;;;;;17.40;5.60;;;;;;;15.47;56.37;99617.37;105868;1274;98972;-66
2022/07/19 03:53:55;;;;;;;13.70;5.30;;;;;;;15.49;56.64;99619.30;105898;1274;96481;-66
2022/07/19 03:56:23;;;;;;;17.30;5.10;;;;;;;15.55;56.71;99617.47;105909;1274;108573;-67
2022/07/19 03:58:53;;;;;;;12.80;4.80;;;;;;;15.60;56.72;99613.98;105932;1274;98584;-67
2022/07/19 04:01:21;;;;;;;11.50;4.50;;;;;;;15.64;56.72;99614.39;105949;1274;97976;-68
2022/07/19 04:03:53;;;;;;;13.10;5.00;;;;;;;15.67;56.67;99614.83;105942;1277;112359;-69
2022/07/19 04:06:21;;;;;;;11.50;5.10;;;;;;;15.68;56.56;99616.70;105936;1274;97920;-71
2022/07/19 04:08:53;;;;;;;12.50;4.70;;;;;;;15.67;56.55;99617.12;105993;1274;108427;-68
2022/07/19 04:11:21;;;;;;;15.10;4.90;;;;;;;15.66;56.78;99615.08;106013;1276;98065;-66
2022/07/19 04:13:54;;;;;;;13.20;4.40;;;;;;;15.68;56.81;99619.71;105978;1274;97879;-66
2022/07/19 04:16:25;;;;;;;10.70;4.40;;;;;;;15.71;56.83;99620.77;105860;1274;112602;-66
2022/07/19 04:18:57;;;;;;;13.30;4.40;;;;;;;15.74;56.98;99622.27;105900;1278;95375;-65
2022/07/19 04:21:28;;;;;;;13.50;4.80;;;;;;;15.79;57.12;99623.46;105895;1274;108630;-66
2022/07/19 04:23:56;;;;;;;12.50;4.80;;;;;;;15.86;57.01;99631.67;105928;1274;96350;-65
2022/07/19 04:26:23;;;;;;;13.20;4.80;;;;;;;15.91;56.96;99630.35;105968;1274;95289;-67
2022/07/19 04:28:56;;;;;;;14.30;4.80;;;;;;;15.95;56.97;99632.10;105909;1274;110796;-65
2022/07/19 04:31:24;;;;;;;14.10;4.90;;;;;;;15.99;56.92;99626.39;106002;1277;98039;-66
2022/07/19 04:33:54;;;;;;;16.50;5.20;;;;;;;16.01;56.85;99619.48;105920;1274;108405;-68
2022/07/19 04:36:24;;;;;;;16.70;5.50;;;;;;;16.00;56.90;99618.45;105915;1274;97885;-68
2022/07/19 04:38:52;;;;;;;11.70;4.40;;;;;;;16.00;57.16;99620.78;106052;1274;97880;-68
2022/07/19 04:41:20;;;;;;;15.00;4.90;;;;;;;16.03;57.26;99626.85;105964;1274;111792;-68
2022/07/19 04:43:48;;;;;;;12.50;4.80;;;;;;;16.04;57.21;99621.52;105993;1274;97970;-68
2022/07/19 04:46:18;;;;;;;13.00;4.40;;;;;;;16.05;57.32;99609.64;106110;1277;108050;-67
2022/07/19 04:48:50;;;;;;;12.40;4.90;;;;;;;16.08;57.42;99611.16;106023;1277;98042;-66
2022/07/19 04:51:20;;;;;;;10.70;4.50;;;;;;;16.13;57.63;99609.87;105959;1277;97950;-66
2022/07/19 04:53:48;;;;;;;10.10;4.40;;;;;;;16.18;57.62;99611.35;105986;1276;112012;-68
2022/07/19 04:56:18;;;;;;;10.70;4.80;;;;;;;16.26;57.56;99612.84;105994;1274;97811;-68
2022/07/19 04:58:48;;;;;;;13.80;5.20;;;;;;;16.33;57.60;99614.23;105925;1277;111267;-66
2022/07/19 05:01:16;;;;;;;12.00;4.30;;;;;;;16.40;57.51;99618.04;106026;1274;97996;-64
2022/07/19 05:03:48;;;;;;;12.20;5.10;;;;;;;16.48;57.69;99615.02;105979;1274;97883;-66
2022/07/19 05:06:18;;;;;;;16.20;5.10;;;;;;;16.55;57.72;99617.83;106026;1274;112122;-67
2022/07/19 05:08:46;;;;;;;12.10;4.60;;;;;;;16.61;57.72;99613.71;106020;1274;97734;-66
2022/07/19 05:11:16;;;;;;;14.60;4.70;;;;;;;16.66;57.67;99616.85;106021;1274;106619;-63
2022/07/19 05:13:44;;;;;;;14.00;4.80;;;;;;;16.70;57.84;99623.11;106026;1274;97977;-67
2022/07/19 05:16:16;;;;;;;11.20;4.20;;;;;;;16.75;57.76;99624.80;106109;1274;97829;-66
2022/07/19 05:18:49;;;;;;;13.30;5.20;;;;;;;16.82;57.86;99622.22;106008;1274;112443;-67
2022/07/19 05:21:22;;;;;;;13.00;4.30;;;;;;;16.90;57.90;99617.98;105999;1274;98615;-64
2022/07/19 05:23:50;;;;;;;12.00;4.50;;;;;;;16.97;57.86;99616.62;105950;1274;108411;-66
2022/07/19 05:26:20;;;;;;;12.50;4.70;;;;;;;17.05;57.74;99612.30;106013;1274;96354;-65
2022/07/19 05:28:48;;;;;;;10.80;4.40;;;;;;;17.11;57.69;99613.02;105999;1274;95264;-66
2022/07/19 05:31:15;;;;;;;16.60;5.00;;;;;;;17.18;57.59;99613.48;106011;1274;111974;-66
2022/07/19 05:33:48;;;;;;;13.30;4.50;;;;;;;17.23;57.52;99615.12;106033;1274;97960;-65
2022/07/19 05:36:15;;;;;;;36.00;21.40;;;;;;;17.29;57.68;99617.13;106060;1274;108352;-64
2022/07/19 05:38:50;;;;;;;24.20;11.90;;;;;;;17.37;58.06;99620.13;106140;1274;96276;-68
2022/07/19 05:41:24;;;;;;;12.10;4.90;;;;;;;17.47;57.88;99616.72;106103;1275;97843;-67
2022/07/19 05:43:56;;;;;;;10.60;4.20;;;;;;;17.56;57.83;99612.30;106026;1274;111365;-67
2022/07/19 05:46:24;;;;;;;14.90;5.00;;;;;;;17.65;57.91;99610.04;106027;1274;97876;-67
2022/07/19 05:48:56;;;;;;;9.20;4.10;;;;;;;17.74;57.93;99610.61;105990;1275;108385;-68
2022/07/19 05:51:26;;;;;;;10.80;3.80;;;;;;;17.83;58.02;99606.71;105961;1274;97935;-67
2022/07/19 05:53:54;;;;;;;14.00;3.60;;;;;;;17.94;57.85;99610.60;105988;1274;97911;-66
2022/07/19 05:56:24;;;;;;;12.20;4.00;;;;;;;18.06;57.90;99611.30;106012;1274;112610;-65
2022/07/19 05:58:53;;;;;;;8.60;4.00;;;;;;;18.17;57.93;99610.72;106004;1274;96559;-66
2022/07/19 06:01:26;;;;;;;10.00;3.70;;;;;;;18.29;57.99;99612.84;106014;1274;107919;-66
2022/07/19 06:04:04;;;;;;;11.10;3.90;;;;;;;18.41;57.90;99613.28;105955;1274;97966;-68
2022/07/19 06:06:37;;;;;;;11.30;4.20;;;;;;;18.52;57.85;99616.71;106090;1274;97876;-67
2022/07/19 06:09:05;;;;;;;9.20;4.10;;;;;;;18.60;57.75;99614.34;106093;1274;111979;-67
2022/07/19 06:11:36;;;;;;;15.90;4.30;;;;;;;18.69;57.80;99609.54;106100;1274;95436;-66
2022/07/19 06:14:13;;;;;;;8.80;3.80;;;;;;;18.81;57.78;99616.23;105998;1274;108341;-66
2022/07/19 06:16:41;;;;;;;16.50;4.50;;;;;;;18.91;57.74;99611.80;106075;1274;97956;-65
2022/07/19 06:19:15;;;;;;;7.30;3.60;;;;;;;18.99;57.85;99607.19;106029;1274;95285;-67
2022/07/19 06:21:47;;;;;;;12.90;3.70;;;;;;;19.06;57.76;99606.13;106030;1274;112055;-67
2022/07/19 06:24:17;;;;;;;11.20;3.80;;;;;;;19.18;57.60;99611.02;106125;1274;97978;-67
2022/07/19 06:26:46;;;;;;;12.50;4.30;;;;;;;19.35;57.61;99610.99;106081;1276;107488;-67
2022/07/19 06:29:15;;;;;;;11.40;3.60;;;;;;;19.45;57.52;99610.78;106030;1274;97766;-69
2022/07/19 06:31:43;;;;;;;11.30;3.80;;;;;;;19.64;57.36;99603.56;105960;1274;98052;-67
2022/07/19 06:34:11;;;;;;;10.60;3.60;;;;;;;19.95;57.10;99606.33;105967;1274;111998;-67
2022/07/19 06:36:40;;;;;;;9.40;3.10;;;;;;;20.31;56.89;99601.70;106010;1274;97975;-67
2022/07/19 06:39:08;;;;;;;12.50;3.70;;;;;;;20.61;56.89;99600.84;105882;1274;108341;-68
2022/07/19 06:41:36;;;;;;;11.90;3.30;;;;;;;20.77;57.32;99604.05;105996;1276;98087;-66
2022/07/19 06:44:05;;;;;;;10.80;3.50;;;;;;;20.91;57.23;99599.12;105968;1274;95343;-66
2022/07/19 06:46:33;;;;;;;8.80;3.60;;;;;;;21.03;57.45;99594.16;106039;1274;111740;-66
2022/07/19 06:49:01;;;;;;;11.20;3.50;;;;;;;21.15;57.33;99596.97;106026;1275;97872;-67
2022/07/19 06:51:28;;;;;;;9.90;3.60;;;;;;;21.26;57.45;99593.58;106011;1274;108824;-67
2022/07/19 06:53:59;;;;;;;15.60;5.20;;;;;;;21.35;57.14;99590.63;105990;1274;97720;-64
2022/07/19 06:56:26;;;;;;;11.90;3.80;;;;;;;21.43;57.09;99593.79;106067;1274;98534;-66
2022/07/19 06:58:55;;;;;;;11.30;3.90;;;;;;;21.50;56.84;99597.65;106036;1274;112077;-66
2022/07/19 07:01:23;;;;;;;11.10;2.90;;;;;;;21.55;57.08;99598.94;106001;1274;96783;-66
2022/07/19 07:03:51;;;;;;;10.10;3.10;;;;;;;21.63;57.01;99592.11;106033;1274;108430;-66
2022/07/19 07:06:19;;;;;;;9.20;3.40;;;;;;;21.78;56.50;99590.84;106090;1274;96400;-66
2022/07/19 07:08:47;;;;;;;7.50;3.50;;;;;;;22.58;55.69;99587.61;106097;1274;97976;-65
2022/07/19 07:11:15;;;;;;;9.40;3.70;;;;;;;23.39;55.29;99583.92;106007;1274;111980;-66
2022/07/19 07:13:44;;;;;;;15.20;3.80;;;;;;;24.14;55.34;99582.88;106112;1274;97880;-66
2022/07/19 07:16:12;;;;;;;5.40;3.10;;;;;;;25.10;55.18;99581.52;106040;1274;108344;-64
2022/07/19 07:18:43;;;;;;;10.50;3.50;;;;;;;26.34;54.78;99581.08;106043;1274;97944;-65
2022/07/19 07:21:11;;;;;;;8.10;3.10;;;;;;;27.53;54.60;99578.34;106110;1274;96426;-66
2022/07/19 07:23:39;;;;;;;9.90;2.90;;;;;;;28.61;54.61;99574.41;106061;1274;112057;-67
2022/07/19 07:26:09;;;;;;;10.90;3.30;;;;;;;29.59;54.15;99577.94;106015;1274;96496;-67
2022/07/19 07:28:38;;;;;;;11.50;3.70;;;;;;;29.75;54.34;99578.38;106071;1274;107819;-66
2022/07/19 07:31:06;;;;;;;8.70;3.40;;;;;;;30.26;53.75;99583.38;106020;1274;97965;-67
2022/07/19 07:33:35;;;;;;;8.60;3.00;;;;;;;31.42;52.68;99583.38;106007;1274;96438;-66
2022/07/19 07:36:04;;;;;;;7.80;3.10;;;;;;;32.46;52.36;99581.35;105960;1274;111952;-66
2022/07/19 07:38:33;;;;;;;9.60;3.10;;;;;;;33.51;52.05;99582.64;105987;1274;98346;-66
2022/07/19 07:41:03;;;;;;;10.40;3.20;;;;;;;34.65;51.58;99579.77;105937;1274;108496;-66
2022/07/19 07:43:51;;;;;;;9.90;3.10;;;;;;;35.75;50.98;99580.62;105937;1274;97902;-66
2022/07/19 07:46:19;;;;;;;10.60;3.40;;;;;;;36.63;50.39;99577.77;106001;1274;97856;-67
2022/07/19 07:48:47;;;;;;;9.00;3.00;;;;;;;37.26;50.06;99572.69;105989;1274;112191;-67
2022/07/19 07:51:24;;;;;;;6.30;2.90;;;;;;;37.89;49.15;99574.37;105984;1274;95726;-67
2022/07/19 07:54:12;;;;;;;10.40;3.20;;;;;;;38.27;48.42;99578.70;105980;1274;108189;-68
2022/07/19 07:56:41;;;;;;;10.30;2.70;;;;;;;38.74;47.59;99578.05;105869;1274;97929;-67
2022/07/19 07:59:10;;;;;;;6.00;3.10;;;;;;;39.40;47.20;99582.38;105990;1274;97870;-66
2022/07/19 08:01:39;;;;;;;9.40;3.10;;;;;;;39.90;46.49;99577.98;106058;1274;111852;-68
2022/07/19 08:04:10;;;;;;;7.60;2.60;;;;;;;40.03;46.18;99582.45;105983;1274;98470;-68
2022/07/19 08:06:38;;;;;;;8.70;3.20;;;;;;;40.29;45.29;99585.91;106043;1274;107844;-67
2022/07/19 08:09:06;;;;;;;5.70;2.90;;;;;;;40.43;44.47;99586.95;106075;1274;97883;-69
2022/07/19 08:11:36;;;;;;;7.90;3.10;;;;;;;40.60;43.42;99584.94;106088;1274;97899;-65
2022/07/19 08:14:05;;;;;;;11.90;4.20;;;;;;;40.71;42.64;99585.81;106193;1274;111419;-64
2022/07/19 08:16:35;;;;;;;9.60;3.20;;;;;;;40.56;42.07;99581.86;106022;1274;98341;-64
2022/07/19 08:19:03;;;;;;;20.90;7.00;;;;;;;40.53;41.76;99576.77;105956;1276;108103;-65
2022/07/19 08:21:33;;;;;;;20.30;6.60;;;;;;;40.90;41.39;99576.40;105987;1274;97997;-64
2022/07/19 08:24:02;;;;;;;7.80;3.30;;;;;;;40.48;40.75;99583.30;105993;1275;98651;-65
2022/07/19 08:26:37;;;;;;;9.40;3.20;;;;;;;39.62;40.13;99590.69;106052;1276;109594;-65
2022/07/19 08:29:05;;;;;;;14.50;4.20;;;;;;;38.52;39.60;99589.65;106036;1275;98331;-66
2022/07/19 08:31:34;;;;;;;7.70;3.10;;;;;;;37.76;39.28;99589.70;106073;1276;108450;-66
2022/07/19 08:34:03;;;;;;;7.40;2.90;;;;;;;36.75;38.31;99591.59;106120;1276;96399;-68
2022/07/19 08:36:32;;;;;;;8.90;3.40;;;;;;;35.45;37.93;99592.35;106108;1274;96468;-67
2022/07/19 08:39:00;;;;;;;13.50;4.60;;;;;;;34.93;37.85;99595.78;105961;1274;111878;-68
2022/07/19 08:41:28;;;;;;;11.30;3.50;;;;;;;34.84;37.36;99593.46;106036;1274;98507;-67
2022/07/19 08:44:02;;;;;;;9.40;3.00;;;;;;;34.66;36.80;99591.17;105943;1274;108721;-67
2022/07/19 08:46:31;;;;;;;5.90;2.90;;;;;;;34.18;36.41;99589.45;106009;1274;97883;-68
2022/07/19 08:49:02;;;;;;;10.60;3.10;;;;;;;33.68;36.60;99590.76;106071;1274;97959;-70
2022/07/19 08:51:31;;;;;;;12.50;3.60;;;;;;;33.12;35.89;99583.73;106109;1274;111609;-68
2022/07/19 08:53:59;;;;;;;11.70;3.70;;;;;;;32.75;36.14;99578.09;106131;1274;98456;-66
2022/07/19 08:59:15;;;;;;;8.70;3.20;;;;;;;32.34;35.30;99577.98;106048;1274;96401;-65
2022/07/19 09:01:44;;;;;;;5.80;2.70;;;;;;;31.99;35.16;99580.78;106024;1274;95289;-64
2022/07/19 09:04:17;;;;;;;9.40;2.90;;;;;;;31.49;35.03;99588.02;106058;1274;112165;-67
2022/07/19 09:06:51;;;;;;;8.90;2.80;;;;;;;30.95;34.84;99589.44;106049;1274;98408;-67
2022/07/19 09:09:22;;;;;;;9.30;3.30;;;;;;;30.48;34.47;99590.58;106008;1274;107877;-66
2022/07/19 09:11:53;;;;;;;10.60;3.20;;;;;;;30.19;34.76;99586.94;105986;1274;97942;-66
2022/07/19 09:14:33;;;;;;;8.90;2.80;;;;;;;29.96;34.53;99591.48;106041;1274;96617;-66
2022/07/19 09:17:19;;;;;;;10.10;3.10;;;;;;;29.65;34.38;99589.70;105927;1274;111049;-66
2022/07/19 09:19:52;;;;;;;8.30;3.20;;;;;;;29.41;34.42;99582.77;105976;1274;98618;-64
2022/07/19 09:22:20;;;;;;;8.70;3.10;;;;;;;29.24;34.43;99584.26;105920;1274;108366;-66
2022/07/19 09:24:51;;;;;;;12.30;3.50;;;;;;;29.06;34.19;99588.43;106618;1274;97971;-65
2022/07/19 09:27:25;;;;;;;8.00;2.70;;;;;;;28.87;34.20;99588.49;105974;1274;97966;-65
2022/07/19 09:29:56;;;;;;;8.30;3.30;;;;;;;28.66;34.14;99588.41;105984;1274;112004;-67
2022/07/19 09:32:25;;;;;;;12.20;3.50;;;;;;;28.28;33.73;99584.98;105994;1274;97877;-66
2022/07/19 09:35:03;;;;;;;9.50;2.90;;;;;;;28.10;33.84;99586.41;106006;1274;106280;-66
2022/07/19 09:37:35;;;;;;;7.60;3.20;;;;;;;28.09;33.94;99583.55;106023;1274;97893;-67
2022/07/19 09:40:08;;;;;;;10.10;3.10;;;;;;;28.18;34.08;99578.58;106093;1274;97037;-66
2022/07/19 09:42:42;;;;;;;10.10;3.40;;;;;;;28.20;33.97;99582.48;106183;1274;111092;-66
2022/07/19 09:45:17;;;;;;;15.10;3.40;;;;;;;28.20;33.94;99578.92;106244;1274;98212;-67
2022/07/19 09:47:48;;;;;;;12.10;3.50;;;;;;;28.17;33.88;99580.86;105968;1274;109282;-66
2022/07/19 09:50:21;;;;;;;13.70;4.00;;;;;;;28.12;33.91;99581.55;105993;1274;95204;-66
2022/07/19 09:52:50;;;;;;;13.70;3.70;;;;;;;28.22;34.05;99576.47;106028;1274;97870;-68
2022/07/19 09:55:20;;;;;;;12.40;3.70;;;;;;;28.36;33.73;99575.06;106001;1274;112058;-67
2022/07/19 09:57:51;;;;;;;9.20;3.50;;;;;;;28.58;33.99;99569.84;105972;1274;95944;-66
2022/07/19 10:00:22;;;;;;;11.00;3.50;;;;;;;28.75;34.01;99571.80;106049;1274;108803;-66
2022/07/19 10:02:57;;;;;;;9.90;3.30;;;;;;;28.84;34.10;99569.36;106038;1274;96972;-67
2022/07/19 10:05:27;;;;;;;10.70;3.20;;;;;;;28.96;34.09;99570.76;106038;1274;97960;-67
2022/07/19 10:07:56;;;;;;;10.80;3.30;;;;;;;29.08;34.14;99572.83;106030;1274;111430;-66
2022/07/19 10:10:30;;;;;;;9.80;3.40;;;;;;;29.10;34.15;99572.95;106060;1274;96280;-67
2022/07/19 10:13:03;;;;;;;13.80;3.40;;;;;;;29.11;34.07;99571.34;105936;1274;108457;-66
2022/07/19 10:15:42;;;;;;;10.00;3.40;;;;;;;29.15;34.08;99567.72;106027;1274;95301;-66
2022/07/19 10:18:13;;;;;;;9.60;3.50;;;;;;;29.08;33.92;99566.21;106087;1273;99453;-66
2022/07/19 10:20:47;;;;;;;11.60;3.50;;;;;;;28.98;33.99;99562.78;106009;1274;112029;-67
2022/07/19 10:23:15;;;;;;;13.30;3.90;;;;;;;28.87;33.91;99564.05;106009;1274;96443;-67
2022/07/19 10:25:47;;;;;;;7.10;3.30;;;;;;;28.78;34.28;99564.29;106038;1274;108363;-67
2022/07/19 10:28:36;;;;;;;8.50;3.30;;;;;;;28.74;33.99;99561.77;105954;1274;97886;-66
2022/07/19 10:31:30;;;;;;;9.50;3.00;;;;;;;28.65;34.18;99564.17;106067;1274;97834;-67
2022/07/19 10:34:11;;;;;;;7.00;2.80;;;;;;;28.59;33.90;99567.02;106042;1271;112023;-67
2022/07/19 10:36:46;;;;;;;6.90;2.80;;;;;;;28.56;33.81;99570.40;106161;1274;96261;-68
2022/07/19 10:39:17;;;;;;;7.90;3.10;;;;;;;28.53;34.08;99572.55;106125;1274;107714;-66
2022/07/19 10:42:06;;;;;;;10.00;3.40;;;;;;;28.50;33.93;99575.02;106060;1274;95316;-66
2022/07/19 10:44:54;;;;;;;8.90;3.10;;;;;;;28.39;33.59;99574.67;106143;1274;97924;-67
2022/07/19 10:47:32;;;;;;;7.30;3.30;;;;;;;28.25;33.73;99577.35;106160;1274;110988;-68
2022/07/19 10:50:07;;;;;;;11.00;3.50;;;;;;;28.18;33.61;99577.83;106085;1274;98263;-67
2022/07/19 10:52:39;;;;;;;9.30;3.50;;;;;;;28.12;33.73;99576.66;105992;1274;107741;-67
2022/07/19 10:55:25;;;;;;;15.20;3.80;;;;;;;28.12;33.70;99577.38;105959;1274;97912;-67
2022/07/19 10:58:08;;;;;;;6.60;3.30;;;;;;;28.15;34.04;99578.97;105967;1274;95188;-67
2022/07/19 11:00:46;;;;;;;16.60;3.80;;;;;;;28.16;33.79;99579.30;105984;1274;111125;-67
2022/07/19 11:03:20;;;;;;;15.20;3.80;;;;;;;28.18;33.76;99574.49;106006;1274;98253;-66
2022/07/19 11:06:00;;;;;;;6.70;2.90;;;;;;;28.22;34.04;99572.17;105992;1274;108254;-67
2022/07/19 11:08:41;;;;;;;9.00;3.40;;;;;;;28.26;34.21;99572.77;106059;1274;98605;-69
2022/07/19 11:11:17;;;;;;;9.10;3.60;;;;;;;28.29;34.02;99570.94;106151;1274;97877;-71
2022/07/19 11:13:51;;;;;;;8.80;3.10;;;;;;;28.28;33.92;99567.70;106007;1274;111216;-68
2022/07/19 11:16:20;;;;;;;11.00;3.50;;;;;;;28.27;33.96;99560.52;106093;1274;95537;-68
2022/07/19 11:18:48;;;;;;;11.60;3.30;;;;;;;28.19;33.81;99559.23;106171;1274;106837;-69
2022/07/19 11:21:17;;;;;;;8.30;3.60;;;;;;;28.20;33.78;99559.52;106050;1273;96381;-66
2022/07/19 11:23:46;;;;;;;9.00;3.50;;;;;;;28.23;33.88;99560.31;106004;1274;96475;-68
2022/07/19 11:26:20;;;;;;;9.30;3.30;;;;;;;28.25;34.10;99562.83;105952;1274;111124;-67
2022/07/19 11:28:50;;;;;;;9.30;3.80;;;;;;;28.21;33.68;99559.68;105979;1274;96455;-66
2022/07/19 11:31:23;;;;;;;9.30;3.40;;;;;;;28.15;33.95;99559.20;106008;1274;108782;-67
2022/07/19 11:33:58;;;;;;;11.70;3.50;;;;;;;28.12;34.07;99554.84;105981;1274;98623;-66
2022/07/19 11:36:28;;;;;;;7.50;3.40;;;;;;;28.11;33.92;99549.66;106090;1274;97959;-65